createdAt,value
2023-04-15T00:02:20.425Z,97683.16
2023-04-15T00:05:06.396Z,97681.59
2023-04-15T00:07:51.881Z,97683.16
2023-04-15T00:10:37.370Z,97681.59
2023-04-15T00:13:22.622Z,97673.25
2023-04-15T00:16:09.263Z,97678.34
2023-04-15T00:18:54.770Z,97671.56
2023-04-15T00:21:39.908Z,97670.34
2023-04-15T00:24:25.236Z,97675.13
2023-04-15T00:27:10.640Z,97670.03
2023-04-15T00:29:56.343Z,97669.56
2023-04-15T00:32:42.413Z,97666.47
2023-04-15T00:35:28.137Z,97663.69
2023-04-15T00:38:13.448Z,97660.16
2023-04-15T00:41:00.815Z,97663.38
2023-04-15T00:43:46.065Z,97654.28
2023-04-15T00:46:33.649Z,97650.72
2023-04-15T00:49:19.375Z,97655.50
2023-04-15T00:52:04.900Z,97649.19
2023-04-15T00:54:51.541Z,97650.72
2023-04-15T00:57:37.186Z,97646.41
2023-04-15T01:00:22.825Z,97651.97
2023-04-15T01:03:09.040Z,97660.31
2023-04-15T01:05:58.372Z,97651.66
2023-04-15T01:08:44.298Z,97653.19
2023-04-15T01:11:30.683Z,97645.34
2023-04-15T01:14:16.340Z,97645.34
2023-04-15T01:17:02.278Z,97631.91
2023-04-15T01:19:47.884Z,97640.25
2023-04-15T01:22:34.489Z,97630.38
2023-04-15T01:25:42.005Z,97631.59
2023-04-15T01:28:28.480Z,97624.03
2023-04-15T01:31:15.209Z,97628.06
2023-04-15T01:34:00.951Z,97628.06
2023-04-15T01:36:46.853Z,97621.72
2023-04-15T01:39:32.608Z,97616.19
2023-04-15T01:42:17.852Z,97621.72
2023-04-15T01:45:03.655Z,97627.28
2023-04-15T01:47:49.408Z,97619.41
2023-04-15T01:50:36.952Z,97615.88
2023-04-15T01:53:22.140Z,97616.63
2023-04-15T01:56:08.163Z,97619.41
2023-04-15T01:58:53.834Z,97618.66
2023-04-15T02:01:39.757Z,97611.53
2023-04-15T02:04:25.090Z,97609.53
2023-04-15T02:07:10.563Z,97607.22
2023-04-15T02:09:55.903Z,97608.00
2023-04-15T02:12:41.201Z,97604.44
2023-04-15T02:15:26.396Z,97605.97
2023-04-15T02:18:11.790Z,97598.91
2023-04-15T02:20:58.690Z,97605.22
2023-04-15T02:23:47.044Z,97602.88
2023-04-15T02:26:33.430Z,97609.22
2023-04-15T02:29:18.789Z,97604.13
2023-04-15T02:32:04.472Z,97599.34
2023-04-15T02:34:49.742Z,97600.59
2023-04-15T02:37:41.659Z,97606.91
2023-04-15T02:40:28.006Z,97604.59
2023-04-15T02:43:13.536Z,97599.81
2023-04-15T02:45:58.949Z,97600.59
2023-04-15T02:48:45.998Z,97591.50
2023-04-15T02:51:32.351Z,97591.50
2023-04-15T02:54:19.781Z,97585.16
2023-04-15T02:57:06.840Z,97585.16
2023-04-15T02:59:52.381Z,97592.72
2023-04-15T03:02:39.496Z,97587.94
2023-04-15T03:05:25.953Z,97585.63
2023-04-15T03:08:11.740Z,97591.19
2023-04-15T03:11:00.737Z,97591.19
2023-04-15T03:13:46.414Z,97596.72
2023-04-15T03:16:45.850Z,97597.94
2023-04-15T03:19:34.323Z,97593.66
2023-04-15T03:22:20.175Z,97590.88
2023-04-15T03:25:07.012Z,97579.75
2023-04-15T03:27:52.252Z,97578.97
2023-04-15T03:30:37.573Z,97576.19
2023-04-15T03:33:22.820Z,97580.53
2023-04-15T03:36:08.193Z,97579.75
2023-04-15T03:38:53.520Z,97578.97
2023-04-15T03:41:38.758Z,97588.09
2023-04-15T03:44:24.220Z,97586.84
2023-04-15T03:47:09.517Z,97589.63
2023-04-15T03:49:54.743Z,97577.75
2023-04-15T03:52:40.073Z,97563.88
2023-04-15T03:55:25.586Z,97565.41
2023-04-15T03:58:13.044Z,97564.63
2023-04-15T04:00:58.444Z,97560.34
2023-04-15T04:03:43.867Z,97567.41
2023-04-15T04:06:29.471Z,97563.44
2023-04-15T04:09:14.884Z,97552.31
2023-04-15T04:12:00.285Z,97557.88
2023-04-15T04:14:45.663Z,97559.41
2023-04-15T04:17:31.297Z,97546.78
2023-04-15T04:20:17.304Z,97555.41
2023-04-15T04:23:02.597Z,97554.63
2023-04-15T04:25:47.963Z,97566.50
2023-04-15T04:28:33.409Z,97568.03
2023-04-15T04:31:19.538Z,97573.59
2023-04-15T04:34:04.891Z,97573.13
2023-04-15T04:36:50.242Z,97562.81
2023-04-15T04:39:35.957Z,97560.03
2023-04-15T04:42:22.291Z,97557.56
2023-04-15T04:45:08.737Z,97559.09
2023-04-15T04:47:53.920Z,97562.94
2023-04-15T04:50:39.450Z,97561.28
2023-04-15T04:53:24.945Z,97566.81
2023-04-15T04:56:10.258Z,97579.78
2023-04-15T04:58:56.622Z,97572.06
2023-04-15T05:01:42.184Z,97577.00
2023-04-15T05:04:28.160Z,97583.63
2023-04-15T05:07:13.661Z,97589.03
2023-04-15T05:09:58.927Z,97587.34
2023-04-15T05:12:44.391Z,97589.97
2023-04-15T05:15:30.027Z,97594.91
2023-04-15T05:18:15.721Z,97586.88
2023-04-15T05:21:02.954Z,97599.81
2023-04-15T05:23:48.467Z,97596.94
2023-04-15T05:26:33.758Z,97595.22
2023-04-15T05:29:19.252Z,97592.28
2023-04-15T05:32:05.258Z,97601.41
2023-04-15T05:34:51.118Z,97597.22
2023-04-15T05:37:36.639Z,97600.31
2023-04-15T05:40:22.367Z,97600.78
2023-04-15T05:43:08.324Z,97597.84
2023-04-15T05:45:54.039Z,97603.22
2023-04-15T05:48:39.376Z,97602.00
2023-04-15T05:51:24.609Z,97601.53
2023-04-15T05:54:10.128Z,97609.41
2023-04-15T05:56:56.438Z,97617.44
2023-04-15T05:59:42.522Z,97611.41
2023-04-15T06:02:28.160Z,97618.19
2023-04-15T06:05:14.454Z,97615.09
2023-04-15T06:07:59.670Z,97615.91
2023-04-15T06:10:45.048Z,97619.91
2023-04-15T06:13:35.404Z,97623.75
2023-04-15T06:16:23.842Z,97622.06
2023-04-15T06:19:12.553Z,97621.28
2023-04-15T06:21:58.827Z,97627.91
2023-04-15T06:24:44.310Z,97622.53
2023-04-15T06:27:30.052Z,97626.06
2023-04-15T06:30:15.390Z,97622.34
2023-04-15T06:33:01.575Z,97627.75
2023-04-15T06:35:47.684Z,97630.06
2023-04-15T06:38:32.836Z,97632.38
2023-04-15T06:41:18.239Z,97649.66
2023-04-15T06:44:05.642Z,97638.38
2023-04-15T06:46:58.117Z,97631.59
2023-04-15T06:50:15.410Z,97644.56
2023-04-15T06:53:05.095Z,97645.19
2023-04-15T06:55:53.691Z,97643.94
2023-04-15T06:58:39.122Z,97644.69
2023-04-15T07:01:24.703Z,97654.59
2023-04-15T07:04:11.176Z,97664.94
2023-04-15T07:06:58.307Z,97659.06
2023-04-15T07:09:45.582Z,97653.97
2023-04-15T07:12:32.222Z,97656.28
2023-04-15T07:15:17.839Z,97651.47
2023-04-15T07:18:03.526Z,97646.38
2023-04-15T07:20:49.045Z,97654.72
2023-04-15T07:23:34.289Z,97653.50
2023-04-15T07:26:19.721Z,97655.78
2023-04-15T07:29:05.068Z,97666.16
2023-04-15T07:31:50.489Z,97669.69
2023-04-15T07:34:38.123Z,97665.06
2023-04-15T07:37:24.444Z,97670.19
2023-04-15T07:40:10.746Z,97675.25
2023-04-15T07:42:57.321Z,97677.59
2023-04-15T07:45:43.521Z,97677.28
2023-04-15T07:48:31.704Z,97681.44
2023-04-15T07:51:17.820Z,97674.81
2023-04-15T07:54:04.469Z,97682.84
2023-04-15T07:56:50.585Z,97684.41
2023-04-15T07:59:35.949Z,97686.88
2023-04-15T08:02:22.735Z,97687.47
2023-04-15T08:05:09.758Z,97697.34
2023-04-15T08:07:55.318Z,97694.13
2023-04-15T08:10:42.544Z,97708.78
2023-04-15T08:13:28.237Z,97705.25
2023-04-15T08:16:22.724Z,97703.56
2023-04-15T08:19:08.229Z,97704.78
2023-04-15T08:21:56.654Z,97701.69
2023-04-15T08:24:42.848Z,97698.16
2023-04-15T08:27:28.653Z,97702.94
2023-04-15T08:30:15.019Z,97712.66
2023-04-15T08:33:04.571Z,97719.31
2023-04-15T08:35:50.219Z,97717.59
2023-04-15T08:38:38.115Z,97716.38
2023-04-15T08:41:28.032Z,97710.81
2023-04-15T08:44:17.830Z,97719.91
2023-04-15T08:47:08.003Z,97723.00
2023-04-15T08:49:55.640Z,97730.09
2023-04-15T08:52:42.725Z,97735.84
2023-04-15T08:55:36.435Z,97727.34
2023-04-15T08:58:26.765Z,97736.44
2023-04-15T09:01:18.388Z,97729.66
2023-04-15T09:04:09.203Z,97733.22
2023-04-15T09:06:54.734Z,97734.47
2023-04-15T09:09:42.225Z,97744.19
2023-04-15T09:12:30.061Z,97732.56
2023-04-15T09:15:18.756Z,97738.75
2023-04-15T09:18:05.935Z,97743.13
2023-04-15T09:20:53.616Z,97743.41
2023-04-15T09:23:41.348Z,97738.34
2023-04-15T09:26:35.020Z,97737.22
2023-04-15T09:29:21.123Z,97748.69
2023-04-15T09:32:14.071Z,97752.34
2023-04-15T09:35:11.242Z,97745.25
2023-04-15T09:38:07.443Z,97750.81
2023-04-15T09:40:52.692Z,97752.06
2023-04-15T09:43:40.045Z,97765.19
2023-04-15T09:46:46.250Z,97771.53
2023-04-15T09:49:32.020Z,97770.75
2023-04-15T09:52:17.344Z,97769.81
2023-04-15T09:55:02.661Z,97774.59
2023-04-15T09:57:48.273Z,97773.84
2023-04-15T10:00:34.082Z,97780.19
2023-04-15T10:03:22.182Z,97771.38
2023-04-15T10:06:09.182Z,97788.22
2023-04-15T10:08:56.494Z,97785.75
2023-04-15T10:11:43.458Z,97792.56
2023-04-15T10:14:32.993Z,97792.88
2023-04-15T10:17:18.704Z,97789.78
2023-04-15T10:20:05.762Z,97795.97
2023-04-15T10:22:53.030Z,97791.63
2023-04-15T10:25:38.974Z,97806.78
2023-04-15T10:28:24.871Z,97801.66
2023-04-15T10:31:13.817Z,97796.25
2023-04-15T10:34:04.321Z,97800.28
2023-04-15T10:36:50.235Z,97793.47
2023-04-15T10:39:43.899Z,97800.59
2023-04-15T10:42:35.332Z,97804.13
2023-04-15T10:45:22.394Z,97812.78
2023-04-15T10:48:09.227Z,97805.38
2023-04-15T10:51:05.183Z,97812.03
2023-04-15T10:53:50.645Z,97812.34
2023-04-15T10:56:35.961Z,97815.47
2023-04-15T10:59:22.447Z,97818.66
2023-04-15T11:02:53.782Z,97820.53
2023-04-15T11:05:39.604Z,97817.28
2023-04-15T11:08:50.421Z,97831.53
2023-04-15T11:12:09.793Z,97825.19
2023-04-15T11:14:55.431Z,97832.28
2023-04-15T11:17:41.311Z,97831.53
2023-04-15T11:20:27.561Z,97831.84
2023-04-15T11:23:15.746Z,97838.78
2023-04-15T11:26:06.594Z,97839.09
2023-04-15T11:28:52.909Z,97845.72
2023-04-15T11:31:38.799Z,97855.47
2023-04-15T11:34:24.166Z,97852.22
2023-04-15T11:37:10.215Z,97857.78
2023-04-15T11:39:55.898Z,97858.56
2023-04-15T11:42:49.561Z,97859.31
2023-04-15T11:45:37.846Z,97856.53
2023-04-15T11:48:27.428Z,97866.47
2023-04-15T11:51:14.531Z,97864.88
2023-04-15T11:54:00.793Z,97876.03
2023-04-15T11:56:51.845Z,97869.53
2023-04-15T11:59:45.777Z,97868.59
2023-04-15T12:02:33.161Z,97875.69
2023-04-15T12:05:19.015Z,97877.25
2023-04-15T12:08:04.387Z,97877.25
2023-04-15T12:10:49.979Z,97883.13
2023-04-15T12:13:35.502Z,97882.84
2023-04-15T12:16:22.356Z,97890.88
2023-04-15T12:19:11.528Z,97898.16
2023-04-15T12:22:02.583Z,97904.63
2023-04-15T12:24:54.170Z,97909.28
2023-04-15T12:27:39.445Z,97914.53
2023-04-15T12:30:24.690Z,97916.53
2023-04-15T12:33:10.478Z,97921.63
2023-04-15T12:35:55.850Z,97914.03
2023-04-15T12:38:41.370Z,97914.03
2023-04-15T12:41:27.176Z,97931.53
2023-04-15T12:44:12.791Z,97935.09
2023-04-15T12:47:03.225Z,97936.31
2023-04-15T12:49:49.751Z,97940.50
2023-04-15T12:52:35.626Z,97942.38
2023-04-15T12:55:21.707Z,97948.38
2023-04-15T12:58:07.291Z,97945.47
2023-04-15T13:00:53.710Z,97944.22
2023-04-15T13:03:40.550Z,97958.56
2023-04-15T13:06:26.247Z,97953.81
2023-04-15T13:09:13.702Z,97961.66
2023-04-15T13:11:59.643Z,97966.47
2023-04-15T13:14:46.113Z,97973.28
2023-04-15T13:17:31.746Z,97970.94
2023-04-15T13:20:17.417Z,97969.38
2023-04-15T13:23:03.128Z,97976.19
2023-04-15T13:25:48.634Z,97976.53
2023-04-15T13:28:34.711Z,97989.34
2023-04-15T13:31:20.579Z,97977.13
2023-04-15T13:34:06.443Z,97984.25
2023-04-15T13:36:52.264Z,97984.69
2023-04-15T13:39:37.616Z,97987.03
2023-04-15T13:42:24.079Z,97988.09
2023-04-15T13:45:10.168Z,97987.03
2023-04-15T13:47:57.268Z,97991.06
2023-04-15T13:50:45.442Z,97987.78
2023-04-15T13:53:38.228Z,97992.59
2023-04-15T13:56:24.945Z,97993.22
2023-04-15T13:59:10.835Z,97995.22
2023-04-15T14:01:56.661Z,97998.00
2023-04-15T14:04:42.421Z,98007.75
2023-04-15T14:07:29.829Z,98006.50
2023-04-15T14:10:15.267Z,98009.94
2023-04-15T14:13:00.620Z,98007.00
2023-04-15T14:15:45.989Z,98020.44
2023-04-15T14:18:31.450Z,98024.78
2023-04-15T14:21:16.650Z,98025.09
2023-04-15T14:24:01.948Z,98028.19
2023-04-15T14:26:48.322Z,98037.31
2023-04-15T14:29:33.602Z,98040.09
2023-04-15T14:32:19.029Z,98043.97
2023-04-15T14:35:04.540Z,98048.59
2023-04-15T14:37:50.318Z,98057.25
2023-04-15T14:40:35.709Z,98052.00
2023-04-15T14:43:21.873Z,98049.84
2023-04-15T14:46:08.611Z,98062.84
2023-04-15T14:48:55.687Z,98057.13
2023-04-15T14:51:41.882Z,98065.78
2023-04-15T14:54:27.362Z,98058.34
2023-04-15T14:57:13.954Z,98071.50
2023-04-15T14:59:59.873Z,98064.84
2023-04-15T15:02:47.485Z,98079.53
2023-04-15T15:05:33.828Z,98082.31
2023-04-15T15:08:19.456Z,98077.53
2023-04-15T15:11:06.042Z,98074.75
2023-04-15T15:13:53.237Z,98084.03
2023-04-15T15:16:39.094Z,98078.00
2023-04-15T15:19:25.008Z,98091.59
2023-04-15T15:22:10.629Z,98084.34
2023-04-15T15:24:59.339Z,98090.66
2023-04-15T15:27:44.743Z,98098.56
2023-04-15T15:30:30.761Z,98104.91
2023-04-15T15:33:16.909Z,98109.84
2023-04-15T15:36:03.286Z,98110.19
2023-04-15T15:38:49.307Z,98121.00
2023-04-15T15:41:40.451Z,98117.28
2023-04-15T15:44:26.204Z,98125.97
2023-04-15T15:47:11.897Z,98129.97
2023-04-15T15:50:00.524Z,98123.94
2023-04-15T15:52:46.504Z,98131.84
2023-04-15T15:55:31.954Z,98143.28
2023-04-15T15:58:17.588Z,98140.19
2023-04-15T16:01:03.124Z,98141.75
2023-04-15T16:03:48.860Z,98145.28
2023-04-15T16:06:35.399Z,98150.84
2023-04-15T16:09:21.825Z,98150.84
2023-04-15T16:12:07.086Z,98154.88
2023-04-15T16:14:53.251Z,98152.09
2023-04-15T16:17:39.389Z,98154.56
2023-04-15T16:20:25.143Z,98157.69
2023-04-15T16:23:16.192Z,98151.34
2023-04-15T16:26:01.612Z,98159.81
2023-04-15T16:28:46.905Z,98162.16
2023-04-15T16:31:32.259Z,98177.47
2023-04-15T16:34:18.640Z,98173.91
2023-04-15T16:37:07.300Z,98173.91
2023-04-15T16:39:53.404Z,98178.69
2023-04-15T16:42:39.799Z,98181.97
2023-04-15T16:45:25.406Z,98185.50
2023-04-15T16:48:11.012Z,98185.97
2023-04-15T16:50:57.206Z,98194.63
2023-04-15T16:53:44.314Z,98195.41
2023-04-15T16:56:29.767Z,98193.88
2023-04-15T16:59:14.931Z,98199.88
2023-04-15T17:02:00.750Z,98213.03
2023-04-15T17:04:46.321Z,98215.06
2023-04-15T17:07:32.117Z,98218.94
2023-04-15T17:10:17.588Z,98218.16
2023-04-15T17:13:03.076Z,98231.28
2023-04-15T17:15:48.614Z,98225.72
2023-04-15T17:18:34.408Z,98229.28
2023-04-15T17:21:19.983Z,98232.22
2023-04-15T17:24:06.292Z,98234.69
2023-04-15T17:26:53.786Z,98242.25
2023-04-15T17:29:39.549Z,98244.28
2023-04-15T17:32:32.027Z,98245.50
2023-04-15T17:35:24.943Z,98243.47
2023-04-15T17:38:11.742Z,98254.94
2023-04-15T17:40:57.184Z,98254.59
2023-04-15T17:43:43.101Z,98251.81
2023-04-15T17:46:28.918Z,98255.69
2023-04-15T17:49:14.409Z,98255.25
2023-04-15T17:52:01.285Z,98260.06
2023-04-15T17:54:46.993Z,98265.94
2023-04-15T17:57:32.716Z,98272.28
2023-04-15T18:00:18.234Z,98275.06
2023-04-15T18:03:04.488Z,98284.66
2023-04-15T18:05:50.727Z,98282.00
2023-04-15T18:08:36.802Z,98291.28
2023-04-15T18:11:22.771Z,98297.75
2023-04-15T18:14:08.835Z,98308.44
2023-04-15T18:16:54.675Z,98319.25
2023-04-15T18:19:41.780Z,98315.69
2023-04-15T18:22:28.362Z,98316.91
2023-04-15T18:25:13.941Z,98323.28
2023-04-15T18:27:59.951Z,98328.38
2023-04-15T18:30:45.790Z,98330.69
2023-04-15T18:33:31.224Z,98335.81
2023-04-15T18:36:17.340Z,98337.03
2023-04-15T18:39:02.917Z,98340.59
2023-04-15T18:41:48.917Z,98339.69
2023-04-15T18:44:34.290Z,98341.72
2023-04-15T18:47:20.710Z,98346.38
2023-04-15T18:50:09.636Z,98347.91
2023-04-15T18:52:58.200Z,98347.13
2023-04-15T18:55:44.805Z,98349.16
2023-04-15T18:59:19.053Z,98348.22
2023-04-15T19:01:44.183Z,98354.13
2023-04-15T19:04:30.638Z,98351.81
2023-04-15T19:07:16.585Z,98366.03
2023-04-15T19:10:06.493Z,98363.13
2023-04-15T19:12:52.168Z,98369.47
2023-04-15T19:15:37.703Z,98369.47
2023-04-15T19:18:22.798Z,98379.06
2023-04-15T19:21:08.603Z,98383.72
2023-04-15T19:23:56.637Z,98376.59
2023-04-15T19:26:42.776Z,98382.94
2023-04-15T19:29:31.327Z,98383.72
2023-04-15T19:32:17.636Z,98388.50
2023-04-15T19:35:03.390Z,98399.31
2023-04-15T19:37:49.240Z,98389.44
2023-04-15T19:40:34.741Z,98398.88
2023-04-15T19:43:20.145Z,98405.66
2023-04-15T19:46:06.731Z,98400.41
2023-04-15T19:48:53.322Z,98406.31
2023-04-15T19:51:39.954Z,98406.75
2023-04-15T19:54:26.128Z,98403.97
2023-04-15T19:57:11.609Z,98406.31
2023-04-15T19:59:57.594Z,98411.09
2023-04-15T20:02:42.996Z,98417.91
2023-04-15T20:05:29.512Z,98420.69
2023-04-15T20:08:15.451Z,98431.38
2023-04-15T20:11:01.732Z,98421.47
2023-04-15T20:13:47.418Z,98429.03
2023-04-15T20:16:34.960Z,98429.03
2023-04-15T20:19:20.618Z,98429.84
2023-04-15T20:22:05.994Z,98436.94
2023-04-15T20:24:51.325Z,98429.84
2023-04-15T20:27:36.806Z,98440.97
2023-04-15T20:30:22.564Z,98445.31
2023-04-15T20:33:08.318Z,98442.84
2023-04-15T20:35:54.611Z,98450.88
2023-04-15T20:38:40.644Z,98449.19
2023-04-15T20:41:26.473Z,98459.56
2023-04-15T20:44:12.129Z,98448.84
2023-04-15T20:46:58.007Z,98454.91
2023-04-15T20:49:43.422Z,98458.00
2023-04-15T20:52:29.146Z,98465.13
2023-04-15T20:55:15.027Z,98460.78
2023-04-15T20:58:00.491Z,98461.34
2023-04-15T21:00:46.261Z,98469.72
2023-04-15T21:03:31.540Z,98469.72
2023-04-15T21:06:17.940Z,98472.50
2023-04-15T21:09:03.449Z,98472.50
2023-04-15T21:14:39.647Z,98481.06
2023-04-15T21:17:25.137Z,98475.16
2023-04-15T21:20:11.343Z,98483.84
2023-04-15T21:22:56.581Z,98479.03
2023-04-15T21:25:41.900Z,98491.88
2023-04-15T21:28:30.630Z,98498.22
2023-04-15T21:31:16.292Z,98493.41
2023-04-15T21:34:02.155Z,98498.97
2023-04-15T21:36:47.875Z,98509.34
2023-04-15T21:39:33.174Z,98515.25
2023-04-15T21:42:18.910Z,98517.59
2023-04-15T21:45:04.535Z,98510.00
2023-04-15T21:48:05.870Z,98520.38
2023-04-15T21:51:01.660Z,98520.38
2023-04-15T21:53:47.090Z,98522.38
2023-04-15T21:56:32.893Z,98529.19
2023-04-15T21:59:18.358Z,98525.16
2023-04-15T22:02:03.733Z,98525.94
2023-04-15T22:04:48.799Z,98520.50
2023-04-15T22:07:34.420Z,98528.84
2023-04-15T22:10:20.865Z,98526.06
2023-04-15T22:13:08.764Z,98530.88
2023-04-15T22:15:54.364Z,98530.88
2023-04-15T22:18:39.646Z,98537.97
2023-04-15T22:21:25.013Z,98543.88
2023-04-15T22:24:39.274Z,98552.69
2023-04-15T22:27:15.983Z,98549.59
2023-04-15T22:30:01.246Z,98554.34
2023-04-15T22:32:46.666Z,98558.06
2023-04-15T22:35:31.812Z,98553.84
2023-04-15T22:38:17.173Z,98561.53
2023-04-15T22:41:02.399Z,98559.97
2023-04-15T22:43:47.695Z,98568.00
2023-04-15T22:46:33.378Z,98559.75
2023-04-15T22:49:18.797Z,98572.16
2023-04-15T22:52:04.295Z,98568.69
2023-04-15T22:54:49.576Z,98572.81
2023-04-15T22:57:34.722Z,98577.72
2023-04-15T23:00:20.119Z,98580.19
2023-04-15T23:03:05.728Z,98566.84
2023-04-15T23:05:52.978Z,98581.97
2023-04-15T23:08:39.172Z,98578.53
2023-04-15T23:11:24.372Z,98579.41
2023-04-15T23:14:09.673Z,98588.19
2023-04-15T23:16:55.224Z,98583.53
2023-04-15T23:19:40.843Z,98586.75
2023-04-15T23:22:26.109Z,98585.75
2023-04-15T23:25:11.355Z,98583.84
2023-04-15T23:27:56.794Z,98596.22
2023-04-15T23:30:42.136Z,98594.31
2023-04-15T23:33:27.436Z,98591.22
2023-04-15T23:36:12.733Z,98602.78
2023-04-15T23:38:58.007Z,98594.88
2023-04-15T23:41:43.153Z,98593.00
2023-04-15T23:44:28.424Z,98589.09
2023-04-15T23:47:13.827Z,98597.88
2023-04-15T23:49:58.934Z,98597.09
2023-04-15T23:52:44.386Z,98601.56
2023-04-15T23:55:30.779Z,98596.09
2023-04-15T23:58:16.092Z,98605.22
